createdAt,value
2023-07-14T00:01:47.484Z,26.11
2023-07-14T00:04:18.784Z,26.07
2023-07-14T00:06:47.727Z,25.98
2023-07-14T00:09:23.540Z,25.93
2023-07-14T00:11:52.912Z,25.92
2023-07-14T00:14:20.901Z,25.91
2023-07-14T00:16:49.500Z,25.93
2023-07-14T00:19:20.003Z,25.96
2023-07-14T00:21:49.129Z,25.98
2023-07-14T00:24:18.590Z,25.99
2023-07-14T00:26:50.219Z,25.94
2023-07-14T00:29:34.209Z,25.98
2023-07-14T00:32:02.240Z,25.97
2023-07-14T00:34:30.668Z,25.87
2023-07-14T00:36:58.634Z,25.88
2023-07-14T00:39:27.845Z,25.85
2023-07-14T00:41:56.336Z,25.81
2023-07-14T00:44:26.289Z,25.74
2023-07-14T00:46:54.484Z,25.58
2023-07-14T00:49:30.025Z,25.57
2023-07-14T00:52:02.908Z,25.67
2023-07-14T00:54:31.690Z,25.71
2023-07-14T00:56:59.990Z,25.70
2023-07-14T00:59:35.186Z,25.70
2023-07-14T01:02:21.649Z,25.74
2023-07-14T01:04:53.978Z,25.81
2023-07-14T01:07:28.921Z,25.90
2023-07-14T01:09:59.988Z,25.81
2023-07-14T01:12:31.986Z,25.71
2023-07-14T01:15:02.921Z,25.46
2023-07-14T01:17:30.936Z,25.39
2023-07-14T01:20:01.660Z,25.35
2023-07-14T01:22:40.954Z,25.04
2023-07-14T01:25:20.690Z,25.20
2023-07-14T01:27:50.679Z,25.28
2023-07-14T01:30:20.721Z,25.22
2023-07-14T01:32:50.474Z,25.23
2023-07-14T01:35:20.692Z,25.22
2023-07-14T01:37:48.686Z,25.29
2023-07-14T01:40:19.723Z,25.31
2023-07-14T01:42:53.913Z,25.34
2023-07-14T01:45:22.783Z,25.32
2023-07-14T01:47:57.128Z,25.33
2023-07-14T01:50:31.783Z,25.32
2023-07-14T01:53:07.175Z,25.24
2023-07-14T01:55:37.474Z,24.83
2023-07-14T01:58:12.210Z,24.70
2023-07-14T02:00:42.747Z,24.61
2023-07-14T02:03:15.059Z,24.57
2023-07-14T02:05:43.128Z,24.59
2023-07-14T02:08:19.146Z,24.58
2023-07-14T02:10:47.396Z,24.77
2023-07-14T02:13:17.192Z,24.81
2023-07-14T02:15:45.875Z,24.80
2023-07-14T02:18:18.328Z,24.80
2023-07-14T02:20:48.938Z,24.73
2023-07-14T02:23:21.921Z,24.77
2023-07-14T02:26:06.968Z,24.79
2023-07-14T02:28:36.341Z,24.80
2023-07-14T02:31:14.118Z,24.76
2023-07-14T02:33:45.450Z,24.78
2023-07-14T02:36:24.123Z,24.71
2023-07-14T02:38:52.091Z,24.69
2023-07-14T02:41:24.935Z,24.55
2023-07-14T02:43:56.798Z,24.47
2023-07-14T02:46:29.221Z,24.51
2023-07-14T02:48:57.319Z,24.53
2023-07-14T02:51:25.285Z,24.53
2023-07-14T02:53:53.268Z,24.50
2023-07-14T02:56:21.659Z,24.43
2023-07-14T02:58:51.510Z,24.27
2023-07-14T03:01:21.960Z,24.35
2023-07-14T03:03:50.150Z,24.39
2023-07-14T03:06:20.840Z,24.32
2023-07-14T03:08:48.882Z,24.35
2023-07-14T03:11:16.843Z,24.34
2023-07-14T03:13:45.271Z,24.27
2023-07-14T03:16:13.291Z,24.33
2023-07-14T03:18:42.691Z,24.28
2023-07-14T03:21:11.134Z,24.37
2023-07-14T03:23:39.393Z,24.43
2023-07-14T03:26:09.607Z,24.30
2023-07-14T03:28:39.203Z,24.25
2023-07-14T03:31:07.637Z,24.32
2023-07-14T03:33:36.259Z,24.42
2023-07-14T03:36:07.441Z,24.55
2023-07-14T03:38:44.054Z,24.49
2023-07-14T03:41:13.095Z,24.54
2023-07-14T03:43:41.657Z,24.61
2023-07-14T03:46:09.929Z,24.60
2023-07-14T03:48:38.034Z,24.75
2023-07-14T03:51:07.721Z,24.71
2023-07-14T03:53:36.399Z,24.86
2023-07-14T03:56:04.403Z,24.97
2023-07-14T03:58:32.383Z,25.00
2023-07-14T04:01:01.635Z,24.93
2023-07-14T04:03:29.896Z,25.01
2023-07-14T04:05:57.920Z,25.09
2023-07-14T04:08:27.300Z,25.04
2023-07-14T04:10:55.238Z,25.14
2023-07-14T04:13:23.178Z,25.19
2023-07-14T04:15:51.168Z,25.04
2023-07-14T04:18:19.146Z,24.91
2023-07-14T04:23:15.674Z,25.02
2023-07-14T04:25:45.832Z,24.80
2023-07-14T04:28:13.784Z,24.79
2023-07-14T04:30:41.812Z,24.92
2023-07-14T04:33:11.203Z,25.06
2023-07-14T04:35:39.131Z,24.97
2023-07-14T04:38:07.936Z,25.20
2023-07-14T04:40:37.856Z,25.45
2023-07-14T04:43:07.215Z,25.41
2023-07-14T04:45:39.690Z,25.49
2023-07-14T04:48:08.074Z,25.47
2023-07-14T04:50:36.427Z,25.21
2023-07-14T04:53:06.692Z,25.20
2023-07-14T04:55:37.813Z,25.28
2023-07-14T04:58:07.258Z,25.23
2023-07-14T05:00:36.909Z,24.86
2023-07-14T05:03:05.896Z,25.08
2023-07-14T05:05:34.605Z,25.29
2023-07-14T05:08:02.650Z,25.57
2023-07-14T05:10:32.971Z,25.76
2023-07-14T05:13:01.275Z,25.57
2023-07-14T05:15:30.693Z,25.75
2023-07-14T05:17:59.021Z,25.99
2023-07-14T05:20:27.090Z,26.17
2023-07-14T05:22:56.062Z,26.26
2023-07-14T05:25:24.443Z,26.40
2023-07-14T05:27:52.426Z,26.27
2023-07-14T05:30:22.943Z,26.44
2023-07-14T05:32:52.478Z,26.61
2023-07-14T05:35:20.823Z,26.70
2023-07-14T05:37:48.991Z,26.96
2023-07-14T05:40:19.002Z,26.99
2023-07-14T05:42:47.041Z,27.30
2023-07-14T05:45:15.950Z,27.57
2023-07-14T05:47:47.190Z,27.52
2023-07-14T05:50:17.288Z,27.56
2023-07-14T05:52:45.644Z,27.78
2023-07-14T05:55:13.768Z,27.75
2023-07-14T05:57:41.820Z,27.63
2023-07-14T06:00:14.697Z,27.85
2023-07-14T06:02:43.898Z,27.66
2023-07-14T06:05:13.612Z,27.88
2023-07-14T06:07:43.629Z,28.26
2023-07-14T06:10:13.360Z,28.65
2023-07-14T06:12:41.305Z,28.85
2023-07-14T06:15:10.110Z,29.06
2023-07-14T06:17:39.163Z,29.20
2023-07-14T06:20:13.075Z,29.32
2023-07-14T06:22:43.611Z,29.40
2023-07-14T06:25:11.638Z,29.32
2023-07-14T06:27:39.617Z,29.49
2023-07-14T06:30:10.023Z,29.79
2023-07-14T06:32:38.424Z,30.12
2023-07-14T06:35:07.694Z,30.42
2023-07-14T06:37:35.757Z,30.43
2023-07-14T06:40:06.168Z,30.54
2023-07-14T06:42:34.383Z,30.62
2023-07-14T06:45:02.927Z,30.62
2023-07-14T06:47:30.916Z,30.56
2023-07-14T06:49:58.964Z,30.53
2023-07-14T06:52:27.003Z,30.74
2023-07-14T06:54:55.201Z,30.87
2023-07-14T06:57:24.592Z,31.11
2023-07-14T06:59:52.570Z,31.27
2023-07-14T07:02:20.790Z,31.33
2023-07-14T07:04:48.854Z,31.59
2023-07-14T07:07:16.809Z,31.75
2023-07-14T07:09:44.767Z,32.08
2023-07-14T07:12:12.769Z,32.16
2023-07-14T07:14:42.105Z,32.27
2023-07-14T07:17:10.222Z,32.21
2023-07-14T07:19:38.289Z,32.20
2023-07-14T07:22:09.178Z,32.39
2023-07-14T07:24:37.182Z,32.67
2023-07-14T07:27:05.972Z,32.89
2023-07-14T07:29:33.992Z,33.13
2023-07-14T07:32:04.579Z,33.35
2023-07-14T07:34:32.591Z,33.59
2023-07-14T07:37:00.562Z,33.56
2023-07-14T07:39:29.002Z,33.62
2023-07-14T07:41:57.005Z,33.76
2023-07-14T07:44:25.179Z,33.91
2023-07-14T07:46:53.204Z,33.92
2023-07-14T07:49:22.587Z,34.14
2023-07-14T07:51:50.615Z,34.31
2023-07-14T07:54:18.594Z,34.48
2023-07-14T07:56:46.569Z,34.60
2023-07-14T07:59:16.746Z,34.51
2023-07-14T08:01:46.876Z,34.80
2023-07-14T08:04:15.912Z,34.64
2023-07-14T08:06:45.618Z,34.76
2023-07-14T08:09:14.253Z,34.89
2023-07-14T08:11:42.245Z,34.85
2023-07-14T08:14:13.936Z,34.92
2023-07-14T08:16:41.939Z,34.98
2023-07-14T08:19:10.201Z,34.98
2023-07-14T08:21:39.564Z,35.01
2023-07-14T08:24:10.555Z,35.03
2023-07-14T08:26:39.938Z,34.90
2023-07-14T08:29:11.553Z,34.20
2023-07-14T08:31:39.535Z,34.63
2023-07-14T08:34:08.996Z,34.91
2023-07-14T08:36:37.963Z,34.99
2023-07-14T08:39:05.922Z,35.08
2023-07-14T08:41:39.835Z,35.26
2023-07-14T08:44:35.385Z,35.51
2023-07-14T08:47:11.661Z,35.82
2023-07-14T08:49:48.961Z,35.72
2023-07-14T08:52:24.459Z,35.62
2023-07-14T08:54:57.820Z,35.83
2023-07-14T08:57:29.573Z,36.02
2023-07-14T09:00:01.463Z,35.94
2023-07-14T09:02:43.139Z,36.22
2023-07-14T09:05:16.688Z,36.50
2023-07-14T09:07:45.069Z,36.54
2023-07-14T09:10:13.897Z,36.62
2023-07-14T09:12:52.468Z,36.65
2023-07-14T09:15:24.815Z,36.61
2023-07-14T09:18:03.714Z,36.62
2023-07-14T09:21:01.255Z,36.83
2023-07-14T09:23:54.527Z,36.79
2023-07-14T09:26:31.963Z,36.36
2023-07-14T09:29:09.565Z,36.55
2023-07-14T09:31:46.044Z,36.72
2023-07-14T09:34:23.605Z,36.88
2023-07-14T09:36:53.385Z,36.86
2023-07-14T09:39:29.346Z,36.57
2023-07-14T09:42:01.395Z,36.77
2023-07-14T09:44:31.376Z,36.64
2023-07-14T09:47:01.692Z,36.48
2023-07-14T09:49:38.350Z,36.82
2023-07-14T09:52:15.856Z,37.00
2023-07-14T09:54:51.191Z,36.88
2023-07-14T09:57:33.662Z,37.20
2023-07-14T10:00:21.494Z,37.20
2023-07-14T10:03:03.727Z,37.43
2023-07-14T10:05:49.263Z,37.52
2023-07-14T10:08:34.661Z,37.45
2023-07-14T10:11:17.229Z,37.43
2023-07-14T10:13:46.847Z,37.36
2023-07-14T10:16:18.628Z,37.33
2023-07-14T10:18:49.985Z,37.33
2023-07-14T10:21:24.709Z,37.53
2023-07-14T10:24:06.449Z,37.68
2023-07-14T10:26:37.001Z,37.74
2023-07-14T10:29:07.675Z,37.32
2023-07-14T10:31:43.016Z,37.56
2023-07-14T10:34:45.360Z,37.44
2023-07-14T10:37:23.085Z,37.81
2023-07-14T10:39:56.804Z,37.69
2023-07-14T10:42:31.458Z,37.87
2023-07-14T10:45:01.029Z,38.02
2023-07-14T10:47:34.684Z,38.08
2023-07-14T10:50:10.549Z,36.85
2023-07-14T10:52:43.593Z,37.19
2023-07-14T10:55:19.014Z,37.49
2023-07-14T10:57:51.705Z,37.73
2023-07-14T11:00:27.754Z,37.93
2023-07-14T11:03:21.506Z,38.22
2023-07-14T11:05:56.642Z,38.28
2023-07-14T11:08:26.990Z,37.84
2023-07-14T11:11:05.083Z,38.03
2023-07-14T11:13:43.817Z,37.43
2023-07-14T11:16:18.740Z,37.50
2023-07-14T11:18:58.746Z,37.61
2023-07-14T11:21:38.120Z,37.76
2023-07-14T11:24:19.407Z,37.82
2023-07-14T11:27:05.754Z,37.84
2023-07-14T11:29:40.531Z,37.95
2023-07-14T11:32:18.678Z,37.95
2023-07-14T11:34:59.742Z,38.06
2023-07-14T11:37:39.683Z,37.86
2023-07-14T11:40:21.248Z,37.76
2023-07-14T11:42:54.399Z,37.79
2023-07-14T11:45:25.544Z,37.54
2023-07-14T11:47:54.517Z,37.57
2023-07-14T11:50:40.597Z,37.44
2023-07-14T11:53:21.835Z,37.56
2023-07-14T11:55:53.281Z,37.57
2023-07-14T11:58:28.025Z,37.38
2023-07-14T12:01:01.377Z,37.51
2023-07-14T12:03:35.874Z,37.56
2023-07-14T12:06:45.380Z,37.37
2023-07-14T12:09:17.846Z,37.38
2023-07-14T12:11:53.308Z,37.40
2023-07-14T12:14:47.152Z,37.45
2023-07-14T12:17:47.065Z,37.52
2023-07-14T12:20:34.975Z,37.52
2023-07-14T12:23:28.539Z,37.55
2023-07-14T12:26:02.835Z,37.21
2023-07-14T12:28:34.620Z,37.48
2023-07-14T12:31:06.331Z,37.14
2023-07-14T12:33:34.500Z,37.29
2023-07-14T12:36:04.910Z,37.17
2023-07-14T12:38:34.979Z,37.32
2023-07-14T12:41:07.653Z,37.31
2023-07-14T12:43:40.401Z,37.30
2023-07-14T12:46:25.582Z,37.19
2023-07-14T12:49:02.728Z,37.16
2023-07-14T12:51:32.887Z,37.13
2023-07-14T12:54:05.206Z,36.85
2023-07-14T12:56:34.428Z,36.88
2023-07-14T12:59:03.264Z,36.59
2023-07-14T13:01:33.398Z,36.76
2023-07-14T13:04:03.878Z,36.84
2023-07-14T13:06:32.112Z,36.89
2023-07-14T13:09:11.624Z,36.78
2023-07-14T13:11:43.113Z,36.82
2023-07-14T13:14:22.294Z,36.78
2023-07-14T13:16:54.182Z,36.82
2023-07-14T13:19:25.808Z,36.83
2023-07-14T13:21:53.932Z,36.52
2023-07-14T13:24:27.871Z,36.35
2023-07-14T13:26:57.747Z,36.22
2023-07-14T13:29:28.214Z,36.23
2023-07-14T13:31:58.771Z,36.37
2023-07-14T13:34:30.899Z,36.40
2023-07-14T13:37:02.508Z,36.39
2023-07-14T13:39:35.385Z,36.39
2023-07-14T13:42:06.437Z,36.48
2023-07-14T13:44:40.300Z,36.57
2023-07-14T13:47:19.313Z,36.60
2023-07-14T13:49:48.386Z,36.38
2023-07-14T13:52:18.638Z,36.61
2023-07-14T13:54:55.197Z,36.62
2023-07-14T13:57:24.770Z,36.69
2023-07-14T13:59:53.202Z,36.65
2023-07-14T14:02:38.436Z,36.58
2023-07-14T14:05:13.572Z,36.59
2023-07-14T14:07:41.748Z,36.52
2023-07-14T14:10:19.393Z,36.33
2023-07-14T14:12:47.788Z,36.28
2023-07-14T14:15:17.152Z,36.19
2023-07-14T14:17:48.277Z,36.24
2023-07-14T14:20:20.204Z,36.15
2023-07-14T14:22:48.734Z,35.87
2023-07-14T14:25:20.600Z,35.99
2023-07-14T14:27:50.689Z,35.94
2023-07-14T14:30:19.722Z,36.03
2023-07-14T14:32:49.676Z,35.89
2023-07-14T14:35:27.388Z,35.77
2023-07-14T14:37:57.164Z,35.77
2023-07-14T14:40:28.916Z,35.67
2023-07-14T14:43:01.712Z,35.82
2023-07-14T14:45:30.894Z,35.53
2023-07-14T14:47:59.244Z,35.54
2023-07-14T14:50:27.246Z,35.44
2023-07-14T14:52:55.553Z,35.29
2023-07-14T14:55:23.916Z,35.38
2023-07-14T14:57:56.744Z,35.37
2023-07-14T15:00:28.117Z,35.38
2023-07-14T15:02:56.131Z,35.35
2023-07-14T15:05:26.961Z,35.25
2023-07-14T15:07:58.377Z,35.34
2023-07-14T15:10:28.437Z,35.28
2023-07-14T15:12:57.962Z,35.23
2023-07-14T15:15:29.695Z,35.28
2023-07-14T15:17:58.986Z,35.02
2023-07-14T15:20:27.439Z,35.07
2023-07-14T15:22:57.431Z,35.10
2023-07-14T15:25:26.555Z,35.01
2023-07-14T15:27:55.197Z,34.95
2023-07-14T15:30:27.915Z,34.86
2023-07-14T15:32:57.383Z,34.76
2023-07-14T15:35:27.887Z,34.76
2023-07-14T15:37:58.420Z,34.69
2023-07-14T15:40:28.418Z,34.62
2023-07-14T15:42:58.335Z,34.50
2023-07-14T15:45:28.736Z,34.42
2023-07-14T15:47:56.866Z,34.36
2023-07-14T15:50:27.503Z,33.98
2023-07-14T15:52:57.730Z,34.23
2023-07-14T15:55:31.044Z,34.24
2023-07-14T15:57:59.016Z,34.00
2023-07-14T16:00:28.562Z,34.16
2023-07-14T16:02:56.996Z,33.95
2023-07-14T16:05:25.255Z,34.02
2023-07-14T16:07:55.635Z,33.99
2023-07-14T16:10:24.057Z,33.72
2023-07-14T16:12:52.169Z,33.82
2023-07-14T16:15:24.687Z,33.84
2023-07-14T16:17:56.787Z,33.77
2023-07-14T16:20:28.014Z,33.66
2023-07-14T16:23:01.571Z,33.70
2023-07-14T16:25:31.131Z,33.60
2023-07-14T16:27:59.264Z,33.52
2023-07-14T16:30:30.267Z,33.54
2023-07-14T16:33:00.867Z,33.49
2023-07-14T16:35:30.003Z,33.40
2023-07-14T16:38:03.319Z,33.28
2023-07-14T16:40:35.762Z,33.13
2023-07-14T16:43:04.512Z,33.17
2023-07-14T16:45:33.745Z,33.21
2023-07-14T16:48:04.471Z,33.13
2023-07-14T16:50:33.652Z,32.96
2023-07-14T16:53:02.498Z,32.91
2023-07-14T16:55:32.146Z,32.86
2023-07-14T16:58:02.997Z,32.70
2023-07-14T17:00:34.231Z,32.66
2023-07-14T17:03:06.115Z,32.43
2023-07-14T17:05:35.931Z,32.21
2023-07-14T17:08:03.950Z,32.15
2023-07-14T17:10:33.009Z,32.15
2023-07-14T17:13:16.063Z,32.09
2023-07-14T17:15:49.834Z,32.07
2023-07-14T17:18:20.896Z,31.95
2023-07-14T17:20:50.213Z,31.82
2023-07-14T17:23:20.627Z,31.86
2023-07-14T17:25:48.603Z,31.89
2023-07-14T17:28:19.234Z,31.89
2023-07-14T17:30:51.712Z,31.94
2023-07-14T17:33:22.897Z,31.94
2023-07-14T17:35:53.858Z,31.91
2023-07-14T17:38:23.892Z,31.84
2023-07-14T17:40:51.860Z,31.72
2023-07-14T17:43:22.001Z,31.57
2023-07-14T17:45:50.666Z,31.40
2023-07-14T17:48:20.998Z,31.38
2023-07-14T17:50:52.408Z,31.32
2023-07-14T17:53:22.978Z,31.28
2023-07-14T17:55:51.987Z,31.16
2023-07-14T17:58:21.886Z,31.11
2023-07-14T18:00:51.195Z,31.03
2023-07-14T18:03:24.621Z,31.01
2023-07-14T18:05:53.344Z,30.95
2023-07-14T18:08:22.925Z,30.88
2023-07-14T18:10:54.313Z,30.80
2023-07-14T18:13:24.881Z,30.69
2023-07-14T18:15:52.928Z,30.66
2023-07-14T18:18:25.208Z,30.59
2023-07-14T18:20:56.865Z,30.48
2023-07-14T18:23:27.131Z,30.41
2023-07-14T18:25:55.445Z,30.31
2023-07-14T18:28:26.404Z,30.24
2023-07-14T18:30:55.607Z,30.20
2023-07-14T18:33:28.260Z,30.16
2023-07-14T18:35:57.637Z,30.07
2023-07-14T18:38:26.634Z,30.00
2023-07-14T18:40:56.653Z,29.88
2023-07-14T18:43:29.684Z,29.59
2023-07-14T18:45:58.452Z,29.54
2023-07-14T18:48:30.662Z,29.42
2023-07-14T18:51:07.223Z,29.45
2023-07-14T18:53:35.201Z,29.42
2023-07-14T18:56:03.259Z,29.29
2023-07-14T18:58:31.247Z,29.31
2023-07-14T19:01:02.095Z,29.27
2023-07-14T19:03:34.338Z,29.24
2023-07-14T19:06:03.465Z,29.22
2023-07-14T19:08:32.356Z,29.17
2023-07-14T19:11:02.616Z,29.11
2023-07-14T19:13:35.062Z,29.12
2023-07-14T19:16:03.067Z,29.07
2023-07-14T19:18:32.623Z,29.06
2023-07-14T19:21:06.954Z,29.00
2023-07-14T19:23:34.901Z,28.96
2023-07-14T19:26:02.875Z,28.93
2023-07-14T19:28:31.885Z,28.86
2023-07-14T19:31:00.121Z,28.83
2023-07-14T19:33:29.480Z,28.76
2023-07-14T19:36:01.464Z,28.67
2023-07-14T19:38:29.911Z,28.47
2023-07-14T19:40:59.629Z,28.38
2023-07-14T19:43:28.776Z,28.27
2023-07-14T19:45:59.048Z,28.26
2023-07-14T19:48:28.193Z,28.27
2023-07-14T19:50:59.009Z,28.24
2023-07-14T19:53:30.342Z,28.18
2023-07-14T19:56:00.248Z,28.14
2023-07-14T19:58:30.971Z,28.07
2023-07-14T20:01:00.475Z,28.02
2023-07-14T20:03:33.493Z,27.98
2023-07-14T20:06:03.145Z,27.97
2023-07-14T20:08:31.411Z,27.96
2023-07-14T20:11:02.929Z,27.92
2023-07-14T20:13:32.781Z,27.86
2023-07-14T20:16:02.115Z,27.83
2023-07-14T20:18:33.188Z,27.80
2023-07-14T20:21:02.626Z,27.75
2023-07-14T20:23:33.080Z,27.74
2023-07-14T20:26:04.204Z,27.63
2023-07-14T20:28:35.048Z,27.45
2023-07-14T20:31:04.772Z,27.48
2023-07-14T20:33:32.811Z,27.47
2023-07-14T20:36:02.547Z,27.39
2023-07-14T20:38:31.206Z,27.33
2023-07-14T20:41:01.078Z,27.31
2023-07-14T20:43:31.428Z,27.33
2023-07-14T20:46:00.230Z,27.28
2023-07-14T20:48:30.415Z,27.27
2023-07-14T20:50:59.081Z,27.24
2023-07-14T20:53:31.032Z,27.19
2023-07-14T20:56:00.889Z,27.07
2023-07-14T20:58:30.619Z,27.03
2023-07-14T21:01:00.077Z,26.95
2023-07-14T21:03:29.884Z,26.93
2023-07-14T21:06:00.020Z,27.04
2023-07-14T21:08:32.268Z,27.20
2023-07-14T21:11:03.016Z,27.02
2023-07-14T21:13:31.204Z,26.82
2023-07-14T21:15:59.154Z,26.70
2023-07-14T21:18:30.872Z,26.75
2023-07-14T21:21:00.745Z,26.69
2023-07-14T21:23:32.240Z,26.36
2023-07-14T21:26:02.135Z,26.39
2023-07-14T21:28:30.291Z,26.47
2023-07-14T21:31:01.627Z,26.49
2023-07-14T21:33:33.192Z,26.59
2023-07-14T21:36:01.631Z,26.66
2023-07-14T21:38:32.801Z,26.68
2023-07-14T21:41:03.939Z,26.70
2023-07-14T21:43:36.714Z,26.67
2023-07-14T21:46:05.168Z,26.65
2023-07-14T21:48:33.593Z,26.60
2023-07-14T21:51:06.383Z,26.37
2023-07-14T21:53:37.435Z,26.34
2023-07-14T21:56:06.008Z,26.15
2023-07-14T21:58:35.054Z,26.20
2023-07-14T22:01:18.049Z,26.21
2023-07-14T22:03:46.053Z,26.04
2023-07-14T22:06:15.644Z,26.03
2023-07-14T22:08:45.185Z,25.99
2023-07-14T22:11:14.613Z,26.02
2023-07-14T22:13:42.757Z,25.96
2023-07-14T22:16:15.572Z,25.84
2023-07-14T22:18:46.867Z,25.88
2023-07-14T22:21:17.663Z,25.87
2023-07-14T22:23:47.265Z,25.88
2023-07-14T22:26:18.374Z,25.85
2023-07-14T22:28:47.511Z,25.77
2023-07-14T22:31:19.058Z,25.77
2023-07-14T22:33:47.890Z,25.71
2023-07-14T22:36:18.317Z,25.67
2023-07-14T22:38:47.636Z,25.60
2023-07-14T22:41:23.487Z,25.56
2023-07-14T22:43:56.998Z,25.50
2023-07-14T22:46:25.874Z,25.43
2023-07-14T22:48:54.137Z,25.36
2023-07-14T22:51:27.392Z,25.32
2023-07-14T22:53:56.787Z,25.27
2023-07-14T22:56:25.241Z,25.17
2023-07-14T22:58:53.857Z,25.10
2023-07-14T23:01:26.106Z,25.07
2023-07-14T23:03:54.196Z,24.99
2023-07-14T23:06:24.225Z,24.97
2023-07-14T23:08:54.134Z,24.94
2023-07-14T23:11:25.859Z,24.86
2023-07-14T23:13:53.860Z,24.84
2023-07-14T23:16:24.061Z,24.80
2023-07-14T23:18:52.512Z,24.63
2023-07-14T23:21:23.788Z,24.59
2023-07-14T23:23:53.372Z,24.63
2023-07-14T23:26:25.050Z,24.61
2023-07-14T23:28:55.084Z,24.56
2023-07-14T23:31:26.558Z,24.56
2023-07-14T23:33:54.827Z,24.50
2023-07-14T23:36:24.626Z,24.48
2023-07-14T23:38:53.422Z,24.46
2023-07-14T23:41:26.367Z,24.43
2023-07-14T23:43:54.743Z,24.39
2023-07-14T23:46:24.057Z,24.35
2023-07-14T23:48:53.245Z,24.30
2023-07-14T23:51:30.442Z,24.25
2023-07-14T23:53:59.997Z,24.07
2023-07-14T23:56:30.032Z,24.13
2023-07-14T23:58:59.077Z,24.14
